Accueil
METAR-TAF:

METAR-TAF

Aéroports :

Aéroport international de Kelowna

Kelowna, Colombie-Britannique, Canada

latitude: 49-58N, longitude: 119-23W, altitude: 430 m

Observation

Le bulletin a été fait il y a 24 minutes, à 23:00 UTC
Vent calme
Température 4°C
Humidité 70%
Pression 1019 hPa
Visibilité: 14.5 km
Ciel clair

METAR: CYLW 202300Z AUTO 00000KT 9SM CLR 04/M01 A3010 RMK SLP211

Heure: 15:24 (23:24 UTC)

Prévision

Le bulletin a été fait il y a 4 heures et 46 minutes, à 18:38 UTC
Prévision valable du 20 à 19 UTC au 21 à 07 UTC
Vent 3 kt de direction variable
Visibilité: 10 km
Quelques nuages à une hauteur de 14000 ft
Nuages épars à une hauteur de 24000 ft

TAF: CYLW 201838Z 2019/2107 VRB03KT P6SM FEW140 SCT240 RMK FCST BASED ON AUTO OBS. NXT FCST BY 210100Z

Observations et prévisions météorologiques de plus de 4000 aéroports (messages METAR et TAF).

Les stations disponibles sont représentées par des disques jaunes et rouges sur la carte.

Passer la souris dessus pour voir le nom de la station.

Cliquer dessus pour voir les observations et prévisions météorologiques.

Pour changer de carte: cliquez sur les boutons verts avec une croix noire pour zoomer, sur le bouton vert avec un tiret pour effectuer un zoom arrière, ou sur les flèches vertes pour les cartes adjacentes.


METAR-TAF: